createdAt,value
2022-11-24T00:00:28.546Z,6.77
2022-11-24T00:01:28.884Z,6.78
2022-11-24T00:02:28.579Z,6.82
2022-11-24T00:03:28.552Z,6.80
2022-11-24T00:04:28.506Z,6.80
2022-11-24T00:05:28.494Z,6.82
2022-11-24T00:06:28.493Z,6.82
2022-11-24T00:07:28.529Z,6.85
2022-11-24T00:08:28.465Z,6.85
2022-11-24T00:09:28.454Z,6.87
2022-11-24T00:10:28.455Z,6.89
2022-11-24T00:11:28.443Z,6.87
2022-11-24T00:12:28.455Z,6.87
2022-11-24T00:13:28.533Z,6.87
2022-11-24T00:14:28.514Z,6.89
2022-11-24T00:15:28.393Z,6.90
2022-11-24T00:16:28.447Z,6.92
2022-11-24T00:17:28.384Z,6.92
2022-11-24T00:18:28.554Z,6.95
2022-11-24T00:19:28.362Z,6.96
2022-11-24T00:20:28.351Z,6.95
2022-11-24T00:21:28.321Z,6.96
2022-11-24T00:22:28.323Z,6.96
2022-11-24T00:23:28.351Z,7.00
2022-11-24T00:24:28.293Z,6.97
2022-11-24T00:25:28.636Z,7.00
2022-11-24T00:26:28.596Z,6.97
2022-11-24T00:27:28.270Z,6.97
2022-11-24T00:28:28.250Z,7.00
2022-11-24T00:29:28.243Z,7.00
2022-11-24T00:30:28.318Z,6.97
2022-11-24T00:31:28.280Z,7.01
2022-11-24T00:32:28.252Z,6.97
2022-11-24T00:33:28.191Z,7.01
2022-11-24T00:34:28.315Z,6.97
2022-11-24T00:35:28.181Z,7.00
2022-11-24T00:36:28.170Z,7.01
2022-11-24T00:37:28.161Z,7.03
2022-11-24T00:38:28.151Z,7.01
2022-11-24T00:39:28.170Z,7.03
2022-11-24T00:40:33.598Z,7.03
2022-11-24T00:41:29.716Z,7.04
2022-11-24T00:42:28.101Z,7.04
2022-11-24T00:43:28.092Z,7.01
2022-11-24T00:44:28.102Z,7.04
2022-11-24T00:45:28.720Z,7.07
2022-11-24T00:46:28.236Z,7.07
2022-11-24T00:47:28.069Z,7.08
2022-11-24T00:48:28.030Z,7.07
2022-11-24T00:49:28.029Z,7.13
2022-11-24T00:50:28.013Z,7.11
2022-11-24T00:51:28.028Z,7.10
2022-11-24T00:52:28.022Z,7.13
2022-11-24T00:53:27.978Z,7.13
2022-11-24T00:54:27.961Z,7.14
2022-11-24T00:55:27.970Z,7.14
2022-11-24T00:56:27.977Z,7.13
2022-11-24T00:57:27.948Z,7.13
2022-11-24T00:58:27.935Z,7.13
2022-11-24T00:59:27.918Z,7.11
2022-11-24T01:00:27.908Z,7.11
2022-11-24T01:01:28.057Z,7.11
2022-11-24T01:02:27.935Z,7.11
2022-11-24T01:03:27.868Z,7.08
2022-11-24T01:04:27.857Z,7.08
2022-11-24T01:05:29.877Z,7.08
2022-11-24T01:06:28.657Z,7.07
2022-11-24T01:07:29.753Z,7.08
2022-11-24T01:08:27.830Z,7.07
2022-11-24T01:09:28.127Z,7.08
2022-11-24T01:10:27.798Z,7.07
2022-11-24T01:11:27.856Z,7.10
2022-11-24T01:12:27.774Z,7.08
2022-11-24T01:13:29.067Z,7.10
2022-11-24T01:14:27.769Z,7.10
2022-11-24T01:15:27.933Z,7.08
2022-11-24T01:16:27.803Z,7.05
2022-11-24T01:17:27.728Z,7.08
2022-11-24T01:18:28.114Z,7.08
2022-11-24T01:19:28.216Z,7.10
2022-11-24T01:20:27.782Z,7.05
2022-11-24T01:21:27.691Z,7.07
2022-11-24T01:22:27.688Z,7.08
2022-11-24T01:23:27.841Z,7.07
2022-11-24T01:24:27.853Z,7.07
2022-11-24T01:25:27.637Z,7.08
2022-11-24T01:26:27.936Z,7.08
2022-11-24T01:27:27.629Z,7.10
2022-11-24T01:28:27.616Z,7.04
2022-11-24T01:29:27.595Z,7.08
2022-11-24T01:30:27.778Z,7.05
2022-11-24T01:31:28.007Z,7.08
2022-11-24T01:32:28.585Z,7.08
2022-11-24T01:33:28.529Z,7.11
2022-11-24T01:34:27.782Z,7.11
2022-11-24T01:35:27.603Z,7.11
2022-11-24T01:36:27.565Z,7.11
2022-11-24T01:37:28.477Z,7.13
2022-11-24T01:38:27.505Z,7.14
2022-11-24T01:39:28.580Z,7.14
2022-11-24T01:40:27.478Z,7.11
2022-11-24T01:41:28.163Z,7.11
2022-11-24T01:42:27.455Z,7.14
2022-11-24T01:43:28.394Z,7.14
2022-11-24T01:44:27.436Z,7.14
2022-11-24T01:45:27.428Z,7.14
2022-11-24T01:46:27.483Z,7.18
2022-11-24T01:47:28.098Z,7.21
2022-11-24T01:48:28.259Z,7.15
2022-11-24T01:49:28.344Z,7.19
2022-11-24T01:50:27.393Z,7.19
2022-11-24T01:51:27.399Z,7.21
2022-11-24T01:52:27.811Z,7.21
2022-11-24T01:53:27.386Z,7.22
2022-11-24T01:54:27.371Z,7.19
2022-11-24T01:55:27.359Z,7.23
2022-11-24T01:56:27.325Z,7.18
2022-11-24T01:57:28.497Z,7.21
2022-11-24T01:58:27.303Z,7.18
2022-11-24T01:59:27.288Z,7.15
2022-11-24T02:00:27.282Z,7.21
2022-11-24T02:01:28.465Z,7.21
2022-11-24T02:02:27.369Z,7.21
2022-11-24T02:03:27.311Z,7.21
2022-11-24T02:04:28.179Z,7.18
2022-11-24T02:05:28.051Z,7.21
2022-11-24T02:06:27.234Z,7.19
2022-11-24T02:07:27.222Z,7.21
2022-11-24T02:08:27.241Z,7.18
2022-11-24T02:09:27.183Z,7.19
2022-11-24T02:10:27.211Z,7.19
2022-11-24T02:11:27.258Z,7.18
2022-11-24T02:12:27.149Z,7.19
2022-11-24T02:13:27.181Z,7.19
2022-11-24T02:14:27.109Z,7.21
2022-11-24T02:15:27.101Z,7.21
2022-11-24T02:16:27.098Z,7.18
2022-11-24T02:17:27.159Z,7.19
2022-11-24T02:18:27.091Z,7.21
2022-11-24T02:19:27.071Z,7.22
2022-11-24T02:20:27.045Z,7.19
2022-11-24T02:21:27.068Z,7.21
2022-11-24T02:22:27.028Z,7.18
2022-11-24T02:23:27.044Z,7.15
2022-11-24T02:24:26.999Z,7.14
2022-11-24T02:25:27.009Z,7.13
2022-11-24T02:26:26.980Z,7.13
2022-11-24T02:27:26.980Z,7.14
2022-11-24T02:28:26.959Z,7.14
2022-11-24T02:29:26.985Z,7.13
2022-11-24T02:30:26.937Z,7.13
2022-11-24T02:31:27.075Z,7.13
2022-11-24T02:32:27.021Z,7.13
2022-11-24T02:33:26.909Z,7.11
2022-11-24T02:34:26.918Z,7.13
2022-11-24T02:35:26.905Z,7.15
2022-11-24T02:36:26.920Z,7.14
2022-11-24T02:37:26.880Z,7.15
2022-11-24T02:38:26.870Z,7.18
2022-11-24T02:39:26.880Z,7.19
2022-11-24T02:40:26.897Z,7.19
2022-11-24T02:41:26.839Z,7.21
2022-11-24T02:42:26.835Z,7.21
2022-11-24T02:43:26.816Z,7.19
2022-11-24T02:44:26.799Z,7.19
2022-11-24T02:45:26.783Z,7.21
2022-11-24T02:46:26.841Z,7.18
2022-11-24T02:47:26.836Z,7.18
2022-11-24T02:48:26.749Z,7.18
2022-11-24T02:49:26.755Z,7.19
2022-11-24T02:50:26.721Z,7.19
2022-11-24T02:51:26.755Z,7.21
2022-11-24T02:52:26.722Z,7.21
2022-11-24T02:53:26.707Z,7.19
2022-11-24T02:54:26.700Z,7.21
2022-11-24T02:55:26.693Z,7.21
2022-11-24T02:56:26.665Z,7.19
2022-11-24T02:57:26.741Z,7.22
2022-11-24T02:58:26.637Z,7.22
2022-11-24T02:59:26.695Z,7.22
2022-11-24T03:00:26.626Z,7.22
2022-11-24T03:01:26.641Z,7.25
2022-11-24T03:02:26.643Z,7.25
2022-11-24T03:03:26.641Z,7.26
2022-11-24T03:04:26.594Z,7.28
2022-11-24T03:05:26.623Z,7.28
2022-11-24T03:06:26.573Z,7.29
2022-11-24T03:07:26.599Z,7.32
2022-11-24T03:08:26.541Z,7.32
2022-11-24T03:09:26.565Z,7.33
2022-11-24T03:10:26.634Z,7.36
2022-11-24T03:11:26.536Z,7.37
2022-11-24T03:12:26.483Z,7.39
2022-11-24T03:13:26.492Z,7.41
2022-11-24T03:14:26.475Z,7.41
2022-11-24T03:15:26.467Z,7.39
2022-11-24T03:16:26.470Z,7.37
2022-11-24T03:17:26.435Z,7.36
2022-11-24T03:18:26.437Z,7.33
2022-11-24T03:19:26.429Z,7.36
2022-11-24T03:20:26.396Z,7.32
2022-11-24T03:21:26.423Z,7.29
2022-11-24T03:22:26.385Z,7.28
2022-11-24T03:23:26.383Z,7.26
2022-11-24T03:24:26.363Z,7.23
2022-11-24T03:25:26.372Z,7.23
2022-11-24T03:26:26.338Z,7.23
2022-11-24T03:27:26.325Z,7.25
2022-11-24T03:28:26.326Z,7.23
2022-11-24T03:29:26.346Z,7.26
2022-11-24T03:30:26.296Z,7.25
2022-11-24T03:31:26.398Z,7.23
2022-11-24T03:32:26.283Z,7.23
2022-11-24T03:33:26.267Z,7.25
2022-11-24T03:34:26.269Z,7.23
2022-11-24T03:35:26.241Z,7.23
2022-11-24T03:36:26.232Z,7.26
2022-11-24T03:37:26.218Z,7.25
2022-11-24T03:38:26.217Z,7.25
2022-11-24T03:39:26.224Z,7.26
2022-11-24T03:40:26.182Z,7.23
2022-11-24T03:41:26.195Z,7.26
2022-11-24T03:42:26.190Z,7.25
2022-11-24T03:43:26.161Z,7.28
2022-11-24T03:44:26.145Z,7.28
2022-11-24T03:46:27.167Z,7.26
2022-11-24T03:47:26.104Z,7.28
2022-11-24T03:48:26.113Z,7.25
2022-11-24T03:49:26.095Z,7.31
2022-11-24T03:50:26.084Z,7.28
2022-11-24T03:51:26.069Z,7.31
2022-11-24T03:52:26.052Z,7.31
2022-11-24T03:53:26.046Z,7.31
2022-11-24T03:54:26.031Z,7.31
2022-11-24T03:55:26.032Z,7.33
2022-11-24T03:56:26.023Z,7.31
2022-11-24T03:57:26.005Z,7.32
2022-11-24T03:58:25.995Z,7.36
2022-11-24T03:59:26.004Z,7.37
2022-11-24T04:00:25.985Z,7.37
2022-11-24T04:01:25.986Z,7.43
2022-11-24T04:02:25.981Z,7.41
2022-11-24T04:03:25.934Z,7.43
2022-11-24T04:04:25.921Z,7.46
2022-11-24T04:05:25.937Z,7.47
2022-11-24T04:06:25.907Z,7.46
2022-11-24T04:07:26.287Z,7.48
2022-11-24T04:08:25.883Z,7.50
2022-11-24T04:09:25.869Z,7.50
2022-11-24T04:10:25.888Z,7.50
2022-11-24T04:11:25.841Z,7.51
2022-11-24T04:12:25.870Z,7.50
2022-11-24T04:13:25.837Z,7.51
2022-11-24T04:14:25.872Z,7.51
2022-11-24T04:15:25.836Z,7.56
2022-11-24T04:16:25.861Z,7.51
2022-11-24T04:17:25.781Z,7.56
2022-11-24T04:18:25.790Z,7.56
2022-11-24T04:19:25.751Z,7.58
2022-11-24T04:20:25.761Z,7.56
2022-11-24T04:21:25.729Z,7.59
2022-11-24T04:22:25.732Z,7.64
2022-11-24T04:23:25.727Z,7.66
2022-11-24T04:24:25.709Z,7.64
2022-11-24T04:25:25.709Z,7.67
2022-11-24T04:26:25.680Z,7.66
2022-11-24T04:27:25.710Z,7.64
2022-11-24T04:28:25.683Z,7.61
2022-11-24T04:29:25.658Z,7.62
2022-11-24T04:30:25.716Z,7.59
2022-11-24T04:31:25.671Z,7.61
2022-11-24T04:32:25.638Z,7.59
2022-11-24T04:33:25.600Z,7.59
2022-11-24T04:34:25.599Z,7.56
2022-11-24T04:35:25.607Z,7.59
2022-11-24T04:36:25.579Z,7.56
2022-11-24T04:37:25.638Z,7.56
2022-11-24T04:39:22.906Z,7.58
2022-11-24T04:39:28.699Z,7.56
2022-11-24T04:40:25.558Z,7.53
2022-11-24T04:41:25.585Z,7.53
2022-11-24T04:42:25.518Z,7.53
2022-11-24T04:43:25.495Z,7.51
2022-11-24T04:44:25.493Z,7.51
2022-11-24T04:45:25.478Z,7.50
2022-11-24T04:46:25.511Z,7.50
2022-11-24T04:47:25.497Z,7.53
2022-11-24T04:48:25.447Z,7.53
2022-11-24T04:49:25.426Z,7.56
2022-11-24T04:50:25.432Z,7.56
2022-11-24T04:51:25.439Z,7.61
2022-11-24T04:52:25.405Z,7.58
2022-11-24T04:53:25.397Z,7.59
2022-11-24T04:54:25.375Z,7.56
2022-11-24T04:55:25.371Z,7.56
2022-11-24T04:56:25.377Z,7.58
2022-11-24T04:57:25.370Z,7.56
2022-11-24T04:58:25.379Z,7.58
2022-11-24T04:59:25.335Z,7.56
2022-11-24T05:00:25.316Z,7.55
2022-11-24T05:01:25.381Z,7.56
2022-11-24T05:02:25.319Z,7.56
2022-11-24T05:03:25.277Z,7.58
2022-11-24T05:04:25.305Z,7.59
2022-11-24T05:05:25.266Z,7.59
2022-11-24T05:06:25.354Z,7.61
2022-11-24T05:07:25.279Z,7.64
2022-11-24T05:08:25.225Z,7.66
2022-11-24T05:09:36.899Z,7.66
2022-11-24T05:10:26.212Z,7.67
2022-11-24T05:11:25.192Z,7.72
2022-11-24T05:12:25.196Z,7.74
2022-11-24T05:13:25.175Z,7.74
2022-11-24T05:14:25.200Z,7.75
2022-11-24T05:15:25.175Z,7.77
2022-11-24T05:16:25.181Z,7.77
2022-11-24T05:17:25.168Z,7.81
2022-11-24T05:18:25.126Z,7.85
2022-11-24T05:19:27.335Z,7.87
2022-11-24T05:20:26.109Z,7.88
2022-11-24T05:21:25.114Z,7.87
2022-11-24T05:22:25.102Z,7.90
2022-11-24T05:23:25.064Z,7.93
2022-11-24T05:24:25.126Z,7.95
2022-11-24T05:25:25.042Z,7.95
2022-11-24T05:26:25.064Z,7.96
2022-11-24T05:27:25.035Z,7.96
2022-11-24T05:28:25.002Z,8.01
2022-11-24T05:29:25.004Z,8.03
2022-11-24T05:30:24.994Z,8.03
2022-11-24T05:31:25.021Z,8.05
2022-11-24T05:32:24.973Z,8.08
2022-11-24T05:33:24.962Z,8.08
2022-11-24T05:34:24.942Z,8.13
2022-11-24T05:35:24.992Z,8.14
2022-11-24T05:36:24.930Z,8.18
2022-11-24T05:37:24.910Z,8.16
2022-11-24T05:38:24.919Z,8.20
2022-11-24T05:39:24.891Z,8.21
2022-11-24T05:40:24.915Z,8.21
2022-11-24T05:41:24.864Z,8.24
2022-11-24T05:42:24.893Z,8.26
2022-11-24T05:43:24.840Z,8.26
2022-11-24T05:44:24.853Z,8.27
2022-11-24T05:45:24.831Z,8.28
2022-11-24T05:46:24.874Z,8.31
2022-11-24T05:47:24.829Z,8.31
2022-11-24T05:48:24.794Z,8.32
2022-11-24T05:49:24.780Z,8.32
2022-11-24T05:50:24.792Z,8.34
2022-11-24T05:51:24.792Z,8.32
2022-11-24T05:52:24.760Z,8.32
2022-11-24T05:53:24.753Z,8.34
2022-11-24T05:54:24.733Z,8.28
2022-11-24T05:55:24.721Z,8.31
2022-11-24T05:56:24.712Z,8.32
2022-11-24T05:57:24.720Z,8.35
2022-11-24T05:58:24.690Z,8.34
2022-11-24T05:59:24.658Z,8.32
2022-11-24T06:00:24.661Z,8.35
2022-11-24T06:01:24.660Z,8.35
2022-11-24T06:02:24.713Z,8.35
2022-11-24T06:03:24.631Z,8.38
2022-11-24T06:04:24.613Z,8.35
2022-11-24T06:05:24.607Z,8.35
2022-11-24T06:06:24.606Z,8.35
2022-11-24T06:07:24.616Z,8.35
2022-11-24T06:08:28.195Z,8.34
2022-11-24T06:09:25.548Z,8.32
2022-11-24T06:10:24.582Z,8.35
2022-11-24T06:11:24.542Z,8.34
2022-11-24T06:12:24.587Z,8.28
2022-11-24T06:13:25.259Z,8.31
2022-11-24T06:14:24.497Z,8.27
2022-11-24T06:15:24.549Z,8.27
2022-11-24T06:16:24.513Z,8.23
2022-11-24T06:17:24.478Z,8.21
2022-11-24T06:18:24.456Z,8.24
2022-11-24T06:19:24.448Z,8.20
2022-11-24T06:20:28.343Z,8.17
2022-11-24T06:21:25.427Z,8.16
2022-11-24T06:22:24.456Z,8.13
2022-11-24T06:23:24.474Z,8.09
2022-11-24T06:24:24.391Z,8.08
2022-11-24T06:25:24.317Z,8.05
2022-11-24T06:26:24.376Z,8.08
2022-11-24T06:27:24.356Z,8.05
2022-11-24T06:28:24.406Z,8.02
2022-11-24T06:29:24.289Z,8.03
2022-11-24T06:30:24.342Z,8.03
2022-11-24T06:31:24.316Z,8.02
2022-11-24T06:32:24.265Z,8.06
2022-11-24T06:33:24.238Z,8.03
2022-11-24T06:34:24.236Z,8.03
2022-11-24T06:35:24.221Z,8.06
2022-11-24T06:36:24.204Z,8.05
2022-11-24T06:37:24.208Z,8.06
2022-11-24T06:38:24.465Z,8.06
2022-11-24T06:39:24.189Z,8.08
2022-11-24T06:40:24.226Z,8.09
2022-11-24T06:41:24.149Z,8.13
2022-11-24T06:42:24.190Z,8.11
2022-11-24T06:43:24.143Z,8.11
2022-11-24T06:44:24.125Z,8.13
2022-11-24T06:45:24.094Z,8.14
2022-11-24T06:46:24.125Z,8.14
2022-11-24T06:47:24.109Z,8.16
2022-11-24T06:48:24.116Z,8.16
2022-11-24T06:49:24.287Z,8.16
2022-11-24T06:50:26.900Z,8.17
2022-11-24T06:51:25.034Z,8.18
2022-11-24T06:52:24.033Z,8.18
2022-11-24T06:53:24.026Z,8.21
2022-11-24T06:54:24.008Z,8.18
2022-11-24T06:55:24.000Z,8.23
2022-11-24T06:56:23.993Z,8.20
2022-11-24T06:57:23.997Z,8.20
2022-11-24T06:58:23.983Z,8.23
2022-11-24T06:59:23.955Z,8.24
2022-11-24T07:00:23.942Z,8.23
2022-11-24T07:01:24.022Z,8.23
2022-11-24T07:02:23.952Z,8.23
2022-11-24T07:03:23.938Z,8.23
2022-11-24T07:04:23.903Z,8.24
2022-11-24T07:05:23.903Z,8.23
2022-11-24T07:06:23.873Z,8.26
2022-11-24T07:07:23.915Z,8.26
2022-11-24T07:08:23.874Z,8.24
2022-11-24T07:09:23.866Z,8.27
2022-11-24T07:10:23.852Z,8.28
2022-11-24T07:11:23.820Z,8.31
2022-11-24T07:12:23.812Z,8.28
2022-11-24T07:13:23.826Z,8.31
2022-11-24T07:14:23.829Z,8.32
2022-11-24T07:15:23.801Z,8.32
2022-11-24T07:16:23.846Z,8.35
2022-11-24T07:17:23.781Z,8.32
2022-11-24T07:18:23.761Z,8.34
2022-11-24T07:19:25.236Z,8.35
2022-11-24T07:20:23.733Z,8.34
2022-11-24T07:21:23.740Z,8.35
2022-11-24T07:22:23.882Z,8.38
2022-11-24T07:23:23.726Z,8.35
2022-11-24T07:24:23.671Z,8.35
2022-11-24T07:25:23.703Z,8.39
2022-11-24T07:26:23.715Z,8.36
2022-11-24T07:27:23.671Z,8.41
2022-11-24T07:28:23.643Z,8.39
2022-11-24T07:29:23.621Z,8.44
2022-11-24T07:30:23.647Z,8.41
2022-11-24T07:31:23.703Z,8.42
2022-11-24T07:32:23.653Z,8.45
2022-11-24T07:33:23.610Z,8.44
2022-11-24T07:34:23.570Z,8.45
2022-11-24T07:35:23.613Z,8.46
2022-11-24T07:36:23.581Z,8.45
2022-11-24T07:37:28.081Z,8.44
2022-11-24T07:38:24.541Z,8.50
2022-11-24T07:39:23.540Z,8.50
2022-11-24T07:40:23.518Z,8.50
2022-11-24T07:41:23.624Z,8.49
2022-11-24T07:42:23.491Z,8.50
2022-11-24T07:43:23.481Z,8.54
2022-11-24T07:44:23.477Z,8.53
2022-11-24T07:45:23.443Z,8.54
2022-11-24T07:46:23.509Z,8.54
2022-11-24T07:47:23.424Z,8.59
2022-11-24T07:48:23.592Z,8.57
2022-11-24T07:49:23.464Z,8.57
2022-11-24T07:50:23.414Z,8.60
2022-11-24T07:51:24.375Z,8.64
2022-11-24T07:52:23.392Z,8.64
2022-11-24T07:53:23.358Z,8.66
2022-11-24T07:54:23.361Z,8.71
2022-11-24T07:55:23.339Z,8.71
2022-11-24T07:56:23.353Z,8.74
2022-11-24T07:57:23.363Z,8.78
2022-11-24T07:58:23.653Z,8.79
2022-11-24T07:59:23.300Z,8.81
2022-11-24T08:00:23.282Z,8.82
2022-11-24T08:01:23.342Z,8.86
2022-11-24T08:02:23.258Z,8.86
2022-11-24T08:03:23.284Z,8.89
2022-11-24T08:04:23.259Z,8.92
2022-11-24T08:05:23.228Z,8.95
2022-11-24T08:06:27.396Z,8.95
2022-11-24T08:07:24.252Z,8.97
2022-11-24T08:08:23.199Z,8.99
2022-11-24T08:09:23.268Z,9.02
2022-11-24T08:10:23.185Z,9.00
2022-11-24T08:11:23.160Z,9.05
2022-11-24T08:12:23.164Z,9.05
2022-11-24T08:13:23.161Z,9.09
2022-11-24T08:14:23.396Z,9.08
2022-11-24T08:15:23.228Z,9.11
2022-11-24T08:16:23.207Z,9.12
2022-11-24T08:17:23.164Z,9.15
2022-11-24T08:18:23.156Z,9.12
2022-11-24T08:19:23.195Z,9.13
2022-11-24T08:20:23.146Z,9.16
2022-11-24T08:21:23.159Z,9.24
2022-11-24T08:22:23.196Z,9.36
2022-11-24T08:23:23.152Z,9.48
2022-11-24T08:24:23.104Z,9.58
2022-11-24T08:25:23.051Z,9.56
2022-11-24T08:26:23.043Z,9.52
2022-11-24T08:27:23.029Z,9.45
2022-11-24T08:28:23.035Z,9.44
2022-11-24T08:29:23.082Z,9.42
2022-11-24T08:30:23.000Z,9.42
2022-11-24T08:31:23.043Z,9.44
2022-11-24T08:32:22.988Z,9.44
2022-11-24T08:33:22.969Z,9.42
2022-11-24T08:34:22.983Z,9.45
2022-11-24T08:35:22.967Z,9.44
2022-11-24T08:36:22.927Z,9.45
2022-11-24T08:37:22.913Z,9.47
2022-11-24T08:38:22.977Z,9.48
2022-11-24T08:39:22.962Z,9.52
2022-11-24T08:40:22.886Z,9.52
2022-11-24T08:41:22.873Z,9.56
2022-11-24T08:42:22.947Z,9.59
2022-11-24T08:43:22.856Z,9.59
2022-11-24T08:44:22.846Z,9.59
2022-11-24T08:45:24.768Z,9.62
2022-11-24T08:46:22.848Z,9.66
2022-11-24T08:47:22.817Z,9.66
2022-11-24T08:48:22.808Z,9.67
2022-11-24T08:49:22.826Z,9.70
2022-11-24T08:50:22.839Z,9.73
2022-11-24T08:51:22.785Z,9.77
2022-11-24T08:52:22.757Z,9.80
2022-11-24T08:53:22.745Z,9.85
2022-11-24T08:54:22.747Z,9.88
2022-11-24T08:55:22.739Z,9.90
2022-11-24T08:56:22.707Z,9.94
2022-11-24T08:57:22.728Z,9.99
2022-11-24T08:58:22.686Z,10.00
2022-11-24T08:59:22.775Z,10.07
2022-11-24T09:00:22.833Z,10.10
2022-11-24T09:01:22.700Z,10.12
2022-11-24T09:02:22.665Z,10.13
2022-11-24T09:03:22.654Z,10.09
2022-11-24T09:04:22.678Z,10.12
2022-11-24T09:05:50.140Z,10.18
2022-11-24T09:06:23.887Z,10.24
2022-11-24T09:07:22.649Z,10.25
2022-11-24T09:08:22.583Z,10.23
2022-11-24T09:09:22.679Z,10.20
2022-11-24T09:10:22.572Z,10.18
2022-11-24T09:11:22.593Z,10.15
2022-11-24T09:12:22.663Z,10.17
2022-11-24T09:13:22.545Z,10.13
2022-11-24T09:14:22.607Z,10.12
2022-11-24T09:15:22.566Z,10.13
2022-11-24T09:16:22.587Z,10.18
2022-11-24T09:17:22.474Z,10.25
2022-11-24T09:18:25.258Z,10.27
2022-11-24T09:19:23.597Z,10.31
2022-11-24T09:20:22.460Z,10.28
2022-11-24T09:21:22.470Z,10.30
2022-11-24T09:22:22.455Z,10.31
2022-11-24T09:23:22.463Z,10.28
2022-11-24T09:24:22.485Z,10.23
2022-11-24T09:25:22.444Z,10.21
2022-11-24T09:26:22.384Z,10.25
2022-11-24T09:27:22.384Z,10.33
2022-11-24T09:28:22.399Z,10.34
2022-11-24T09:29:22.365Z,10.36
2022-11-24T09:30:22.374Z,10.39
2022-11-24T09:31:22.368Z,10.46
2022-11-24T09:32:22.416Z,10.46
2022-11-24T09:33:22.377Z,10.42
2022-11-24T09:34:22.329Z,10.36
2022-11-24T09:35:22.311Z,10.34
2022-11-24T09:36:22.342Z,10.27
2022-11-24T09:37:22.286Z,10.27
2022-11-24T09:38:22.289Z,10.25
2022-11-24T09:39:22.303Z,10.24
2022-11-24T09:40:22.265Z,10.27
2022-11-24T09:41:22.265Z,10.25
2022-11-24T09:42:22.238Z,10.25
2022-11-24T09:43:22.324Z,10.24
2022-11-24T09:44:22.268Z,10.24
2022-11-24T09:45:41.540Z,10.21
2022-11-24T09:46:23.210Z,10.20
2022-11-24T09:47:22.187Z,10.21
2022-11-24T09:48:22.166Z,10.25
2022-11-24T09:49:22.172Z,10.28
2022-11-24T09:50:22.166Z,10.30
2022-11-24T09:51:22.140Z,10.27
2022-11-24T09:52:22.130Z,10.25
2022-11-24T09:53:22.157Z,10.23
2022-11-24T09:54:22.122Z,10.25
2022-11-24T09:55:22.096Z,10.25
2022-11-24T09:56:22.094Z,10.23
2022-11-24T09:57:22.065Z,10.21
2022-11-24T09:58:22.091Z,10.17
2022-11-24T09:59:22.128Z,10.15
2022-11-24T10:00:22.053Z,10.12
2022-11-24T10:01:22.079Z,10.12
2022-11-24T10:02:22.024Z,10.10
2022-11-24T10:03:22.023Z,10.12
2022-11-24T10:04:22.086Z,10.13
2022-11-24T10:05:21.997Z,10.17
2022-11-24T10:06:22.038Z,10.17
2022-11-24T10:07:22.008Z,10.20
2022-11-24T10:08:21.971Z,10.21
2022-11-24T10:09:21.973Z,10.25
2022-11-24T10:10:25.109Z,10.24
2022-11-24T10:11:21.922Z,10.18
2022-11-24T10:12:21.928Z,10.17
2022-11-24T10:13:21.907Z,10.12
2022-11-24T10:14:21.904Z,10.09
2022-11-24T10:15:21.892Z,10.07
2022-11-24T10:16:21.910Z,10.00
2022-11-24T10:17:21.898Z,10.00
2022-11-24T10:18:21.857Z,10.00
2022-11-24T10:19:21.866Z,9.99
2022-11-24T10:20:21.839Z,10.02
2022-11-24T10:21:21.819Z,10.06
2022-11-24T10:22:21.811Z,10.09
2022-11-24T10:23:21.910Z,10.15
2022-11-24T10:24:21.797Z,10.15
2022-11-24T10:25:21.831Z,10.20
2022-11-24T10:26:21.812Z,10.20
2022-11-24T10:27:21.761Z,10.20
2022-11-24T10:28:21.773Z,10.18
2022-11-24T10:29:21.749Z,10.18
2022-11-24T10:30:21.780Z,10.21
2022-11-24T10:31:21.780Z,10.23
2022-11-24T10:32:21.705Z,10.24
2022-11-24T10:33:25.688Z,10.34
2022-11-24T10:34:22.669Z,10.39
2022-11-24T10:35:21.842Z,10.42
2022-11-24T10:36:21.664Z,10.53
2022-11-24T10:37:21.639Z,10.57
2022-11-24T10:38:21.630Z,10.62
2022-11-24T10:39:21.650Z,10.62
2022-11-24T10:40:40.990Z,10.65
2022-11-24T10:41:22.741Z,10.68
2022-11-24T10:42:21.624Z,10.69
2022-11-24T10:43:21.584Z,10.71
2022-11-24T10:44:21.654Z,10.75
2022-11-24T10:45:21.621Z,10.77
2022-11-24T10:46:21.578Z,10.79
2022-11-24T10:47:21.574Z,10.83
2022-11-24T10:48:21.543Z,10.87
2022-11-24T10:49:21.510Z,10.90
2022-11-24T10:50:21.543Z,10.97
2022-11-24T10:51:21.548Z,11.00
2022-11-24T10:52:21.510Z,11.02
2022-11-24T10:53:21.463Z,11.00
2022-11-24T10:54:21.512Z,10.95
2022-11-24T10:55:21.820Z,10.90
2022-11-24T10:56:21.430Z,10.86
2022-11-24T10:57:21.450Z,10.86
2022-11-24T10:58:21.430Z,10.82
2022-11-24T10:59:21.419Z,10.84
2022-11-24T11:00:21.441Z,10.82
2022-11-24T11:01:21.478Z,10.89
2022-11-24T11:02:21.412Z,11.00
2022-11-24T11:03:21.324Z,11.07
2022-11-24T11:04:21.345Z,11.04
2022-11-24T11:05:21.321Z,11.04
2022-11-24T11:06:21.312Z,11.00
2022-11-24T11:07:21.349Z,10.98
2022-11-24T11:08:21.266Z,10.92
2022-11-24T11:09:21.274Z,10.95
2022-11-24T11:10:21.262Z,11.01
2022-11-24T11:11:21.277Z,11.08
2022-11-24T11:12:42.937Z,11.13
2022-11-24T11:13:22.305Z,11.20
2022-11-24T11:14:21.289Z,11.19
2022-11-24T11:15:21.199Z,11.19
2022-11-24T11:16:21.207Z,11.22
2022-11-24T11:17:21.184Z,11.22
2022-11-24T11:18:21.151Z,11.25
2022-11-24T11:19:47.455Z,11.22
2022-11-24T11:20:22.143Z,11.27
2022-11-24T11:21:21.138Z,11.35
2022-11-24T11:22:21.109Z,11.31
2022-11-24T11:23:22.567Z,11.37
2022-11-24T11:24:22.596Z,11.37
2022-11-24T11:25:24.589Z,11.44
2022-11-24T11:26:21.118Z,11.53
2022-11-24T11:27:21.207Z,11.55
2022-11-24T11:28:21.037Z,11.60
2022-11-24T11:31:23.001Z,11.81
2022-11-24T11:34:35.231Z,11.86
2022-11-24T11:35:21.982Z,11.91
2022-11-24T11:36:20.955Z,11.88
2022-11-24T11:37:20.958Z,11.88
2022-11-24T11:38:20.941Z,11.93
2022-11-24T11:39:20.928Z,12.00
2022-11-24T11:40:20.897Z,12.02
2022-11-24T11:41:20.905Z,12.18
2022-11-24T11:42:45.364Z,12.25
2022-11-24T11:43:21.964Z,12.33
2022-11-24T11:44:20.873Z,12.36
2022-11-24T11:45:20.907Z,12.37
2022-11-24T11:46:20.988Z,12.40
2022-11-24T11:47:20.824Z,12.39
2022-11-24T11:48:20.829Z,12.43
2022-11-24T11:49:20.821Z,12.50
2022-11-24T11:50:20.870Z,12.51
2022-11-24T11:51:23.627Z,12.55
2022-11-24T11:52:20.783Z,12.53
2022-11-24T11:53:20.805Z,12.54
2022-11-24T11:54:20.764Z,12.61
2022-11-24T11:55:20.789Z,12.61
2022-11-24T11:56:20.726Z,12.62
2022-11-24T11:57:20.789Z,12.51
2022-11-24T11:58:20.725Z,12.39
2022-11-24T11:59:20.716Z,12.32
2022-11-24T12:00:20.743Z,12.30
2022-11-24T12:01:20.725Z,12.32
2022-11-24T12:02:20.741Z,12.29
2022-11-24T12:03:20.809Z,12.30
2022-11-24T12:04:20.720Z,12.18
2022-11-24T12:05:20.626Z,12.08
2022-11-24T12:06:20.684Z,11.97
2022-11-24T12:07:20.644Z,11.83
2022-11-24T12:08:21.823Z,11.74
2022-11-24T12:09:21.564Z,11.74
2022-11-24T12:10:21.013Z,11.78
2022-11-24T12:11:22.043Z,11.80
2022-11-24T12:12:20.566Z,11.83
2022-11-24T12:13:20.541Z,11.91
2022-11-24T12:14:20.546Z,12.00
2022-11-24T12:15:20.541Z,12.10
2022-11-24T12:16:20.575Z,12.12
2022-11-24T12:17:20.499Z,12.20
2022-11-24T12:18:48.689Z,12.23
2022-11-24T12:19:21.467Z,12.21
2022-11-24T12:20:20.474Z,12.18
2022-11-24T12:21:26.252Z,12.20
2022-11-24T12:22:21.522Z,12.17
2022-11-24T12:23:20.437Z,12.17
2022-11-24T12:24:20.434Z,12.26
2022-11-24T12:25:20.445Z,12.57
2022-11-24T12:26:20.391Z,12.94
2022-11-24T12:27:23.115Z,13.36
2022-11-24T12:28:20.407Z,13.64
2022-11-24T12:29:20.355Z,14.15
2022-11-24T12:30:20.417Z,14.51
2022-11-24T12:31:20.383Z,14.68
2022-11-24T12:32:20.372Z,14.55
2022-11-24T12:33:20.316Z,14.62
2022-11-24T12:34:20.328Z,14.62
2022-11-24T12:35:20.304Z,14.40
2022-11-24T12:36:20.296Z,13.94
2022-11-24T12:37:20.321Z,13.57
2022-11-24T12:38:20.263Z,13.52
2022-11-24T12:39:20.247Z,13.64
2022-11-24T12:40:20.259Z,13.82
2022-11-24T12:42:21.976Z,14.23
2022-11-24T12:43:20.205Z,14.58
2022-11-24T12:44:20.232Z,14.70
2022-11-24T12:45:20.173Z,14.52
2022-11-24T12:46:20.276Z,14.41
2022-11-24T12:47:20.156Z,14.13
2022-11-24T12:48:20.162Z,14.11
2022-11-24T12:49:20.134Z,14.31
2022-11-24T12:50:20.206Z,14.45
2022-11-24T12:51:20.216Z,13.98
2022-11-24T12:52:20.118Z,13.57
2022-11-24T12:53:20.095Z,13.33
2022-11-24T12:54:20.260Z,13.20
2022-11-24T12:55:20.068Z,13.21
2022-11-24T12:56:20.068Z,13.11
2022-11-24T12:57:20.056Z,13.03
2022-11-24T12:58:20.091Z,12.98
2022-11-24T12:59:20.034Z,12.91
2022-11-24T13:00:20.048Z,12.84
2022-11-24T13:01:20.186Z,12.80
2022-11-24T13:02:20.096Z,12.78
2022-11-24T13:03:20.102Z,12.72
2022-11-24T13:04:19.980Z,12.68
2022-11-24T13:05:19.960Z,12.70
2022-11-24T13:06:19.945Z,12.68
2022-11-24T13:07:19.964Z,12.68
2022-11-24T13:08:19.915Z,12.73
2022-11-24T13:09:19.906Z,12.76
2022-11-24T13:10:26.342Z,12.80
2022-11-24T13:11:20.936Z,12.80
2022-11-24T13:12:19.912Z,12.94
2022-11-24T13:13:19.872Z,13.16
2022-11-24T13:14:19.999Z,13.30
2022-11-24T13:15:44.800Z,13.47
2022-11-24T13:16:35.802Z,13.45